Time;durP1;ratioP1;P1;durP2;ratioP2;P2;SDS_P1;SDS_P2;PMS_P1;PMS_P2;Temp;Humidity;BMP_temperature;BMP_pressure;BME280_temperature;BME280_humidity;BME280_pressure;Samples;Min_cycle;Max_cycle;Signal;HPM_P1;HPM_P2
2023/10/25 00:03:00;;;;;;;4.97;4.50;;;;;;;16.67;62.21;97682.34;6974922;28;20202;-82
2023/10/25 00:06:21;;;;;;;6.77;5.27;;;;;;;16.54;62.26;97678.25;6986046;28;20720;-81
2023/10/25 00:09:43;;;;;;;25.00;6.70;;;;;;;16.71;62.12;97688.88;6986999;28;20202;-81
2023/10/25 00:13:06;;;;;;;7.00;5.57;;;;;;;16.59;62.38;97686.44;6979088;28;20665;-81
2023/10/25 00:16:27;;;;;;;8.87;6.53;;;;;;;16.56;62.54;97692.41;6979088;28;20257;-82
2023/10/25 00:19:50;;;;;;;7.13;6.43;;;;;;;16.27;62.59;97658.59;6966418;28;20267;-82
2023/10/25 00:23:11;;;;;;;6.90;6.30;;;;;;;16.37;62.93;97683.09;6986106;28;20207;-81
2023/10/25 00:26:33;;;;;;;7.93;6.40;;;;;;;16.06;62.91;97670.50;6985706;28;20250;-81
2023/10/25 00:29:56;;;;;;;7.60;6.87;;;;;;;16.12;62.78;97688.47;6987103;28;20253;-82
2023/10/25 00:33:17;;;;;;;7.90;6.20;;;;;;;15.91;63.71;97667.72;6978345;28;20203;-81
2023/10/25 00:36:39;;;;;;;7.80;7.03;;;;;;;15.86;63.94;97654.09;6950579;28;20740;-81
2023/10/25 00:40:00;;;;;;;7.07;6.47;;;;;;;16.00;63.49;97674.28;6946848;28;20651;-81
2023/10/25 00:43:23;;;;;;;7.47;6.67;;;;;;;16.03;63.47;97664.75;6946987;28;20264;-81
2023/10/25 00:46:47;;;;;;;8.97;7.37;;;;;;;16.10;63.28;97668.88;6971817;28;20727;-82
2023/10/25 00:50:10;;;;;;;7.90;7.10;;;;;;;15.55;64.01;97668.66;6967851;28;20301;-81
2023/10/25 00:53:33;;;;;;;8.77;7.97;;;;;;;15.33;65.23;97672.59;6947103;28;20632;-81
2023/10/25 00:56:55;;;;;;;8.47;7.67;;;;;;;15.96;63.72;97669.63;6946823;28;20370;-81
2023/10/25 01:00:17;;;;;;;8.27;7.47;;;;;;;16.03;63.10;97662.88;6947481;28;20211;-80
2023/10/25 01:03:41;;;;;;;7.97;7.00;;;;;;;15.73;63.38;97662.75;6968110;28;20244;-81
2023/10/25 01:07:02;;;;;;;8.77;7.87;;;;;;;15.48;63.98;97653.66;6971149;28;20214;-81
2023/10/25 01:10:24;;;;;;;8.47;7.67;;;;;;;15.40;64.85;97648.75;6947665;28;20214;-81
2023/10/25 01:13:45;;;;;;;9.73;7.80;;;;;;;15.69;63.88;97649.97;6968763;28;20344;-81
2023/10/25 01:17:07;;;;;;;7.77;7.00;;;;;;;15.82;63.36;97668.50;6977109;28;20234;-81
2023/10/25 01:20:32;;;;;;;8.67;7.70;;;;;;;15.80;62.65;97654.38;6956879;28;20234;-81
2023/10/25 01:23:55;;;;;;;8.73;7.93;;;;;;;15.47;63.70;97649.31;6974433;28;20255;-81
2023/10/25 01:27:16;;;;;;;7.83;6.83;;;;;;;15.42;63.88;97646.56;6983540;28;20633;-81
2023/10/25 01:30:39;;;;;;;8.30;7.50;;;;;;;15.48;64.31;97635.47;6982861;28;20292;-81
2023/10/25 01:34:01;;;;;;;17.80;7.50;;;;;;;15.58;63.70;97657.25;6981958;28;20299;-82
2023/10/25 01:37:23;;;;;;;7.93;7.23;;;;;;;15.80;62.51;97655.19;6982479;28;20219;-81
2023/10/25 01:40:46;;;;;;;7.33;6.63;;;;;;;15.74;62.58;97663.59;6978678;28;20293;-81
2023/10/25 01:44:07;;;;;;;8.37;6.97;;;;;;;15.40;62.64;97643.31;6970570;28;20240;-82
2023/10/25 01:47:29;;;;;;;10.77;6.97;;;;;;;15.70;62.44;97667.91;6980782;28;20281;-81
2023/10/25 01:50:53;;;;;;;8.40;7.60;;;;;;;15.36;62.76;97624.00;6981285;28;20223;-81
2023/10/25 01:54:14;;;;;;;9.43;8.17;;;;;;;15.36;63.12;97645.75;6978595;28;20244;-81
2023/10/25 01:57:37;;;;;;;8.00;7.30;;;;;;;15.11;63.71;97634.69;6978181;28;20625;-82
2023/10/25 02:00:58;;;;;;;11.90;8.20;;;;;;;14.91;63.99;97666.28;6979929;28;20289;-81
2023/10/25 02:04:20;;;;;;;11.33;7.80;;;;;;;14.87;64.08;97657.84;6980298;28;20207;-82
2023/10/25 02:07:41;;;;;;;11.37;8.10;;;;;;;14.70;64.88;97678.88;6980694;28;20721;-80
2023/10/25 02:11:03;;;;;;;9.40;8.37;;;;;;;14.45;66.25;97665.09;6979744;28;20230;-81
2023/10/25 02:14:26;;;;;;;12.03;8.90;;;;;;;14.83;65.02;97669.50;6972617;28;20286;-81
2023/10/25 02:17:47;;;;;;;10.90;8.97;;;;;;;14.95;64.24;97670.97;6978989;28;20310;-81
2023/10/25 02:21:10;;;;;;;7.33;6.63;;;;;;;15.41;62.26;97667.50;6978700;28;20685;-82
2023/10/25 02:24:31;;;;;;;10.03;7.87;;;;;;;14.90;63.54;97665.50;6978504;28;20697;-81
2023/10/25 02:27:53;;;;;;;8.33;6.93;;;;;;;15.10;63.09;97664.81;6977568;28;20352;-81
2023/10/25 02:31:16;;;;;;;10.30;8.20;;;;;;;15.05;63.34;97657.44;6977940;28;20576;-81
2023/10/25 02:34:37;;;;;;;9.73;7.87;;;;;;;15.18;63.20;97659.72;6979535;28;20340;-81
2023/10/25 02:37:59;;;;;;;8.13;7.33;;;;;;;15.40;62.01;97633.25;6980288;28;20234;-82
2023/10/25 02:41:20;;;;;;;9.20;6.73;;;;;;;15.13;62.82;97618.97;6980098;28;20238;-81
2023/10/25 02:44:42;;;;;;;10.87;7.60;;;;;;;15.32;62.79;97635.63;6978172;28;20280;-81
2023/10/25 02:48:11;;;;;;;11.40;8.30;;;;;;;15.25;62.48;97635.88;6979063;28;20352;-81
2023/10/25 02:51:32;;;;;;;8.33;6.37;;;;;;;15.14;62.73;97628.72;6979995;28;20641;-82
2023/10/25 02:54:54;;;;;;;8.77;7.30;;;;;;;14.76;63.16;97617.34;6979366;28;20298;-81
2023/10/25 02:58:16;;;;;;;6.37;5.73;;;;;;;15.00;62.66;97624.03;6978834;28;20321;-81
2023/10/25 03:01:38;;;;;;;8.40;5.57;;;;;;;14.64;63.85;97622.94;6963256;28;20203;-81
2023/10/25 03:05:01;;;;;;;5.87;5.37;;;;;;;14.65;63.89;97589.34;6967808;28;20293;-82
2023/10/25 03:08:22;;;;;;;6.03;5.43;;;;;;;15.10;63.05;97614.03;6979526;28;20742;-80
2023/10/25 03:11:44;;;;;;;6.70;5.60;;;;;;;15.10;63.04;97610.53;6979872;28;20297;-82
2023/10/25 03:15:06;;;;;;;6.00;5.50;;;;;;;15.02;63.11;97616.44;6979107;28;20214;-82
2023/10/25 03:18:28;;;;;;;6.40;5.80;;;;;;;15.09;62.63;97598.00;6967296;28;20320;-81
2023/10/25 03:21:51;;;;;;;6.27;5.67;;;;;;;14.61;62.38;97525.00;6973138;28;20224;-82
2023/10/25 03:25:12;;;;;;;6.87;6.13;;;;;;;14.74;63.06;97605.94;6979007;28;20264;-81
2023/10/25 03:28:34;;;;;;;8.57;6.10;;;;;;;14.37;63.38;97600.50;6978986;28;20264;-82
2023/10/25 03:31:58;;;;;;;6.67;6.07;;;;;;;14.32;63.89;97611.28;6979953;28;20295;-81
2023/10/25 03:35:19;;;;;;;7.00;6.33;;;;;;;14.69;62.92;97600.47;6973716;28;20206;-80
2023/10/25 03:38:42;;;;;;;7.17;6.43;;;;;;;14.75;62.46;97597.53;6982355;28;20313;-82
2023/10/25 03:42:04;;;;;;;9.77;8.87;;;;;;;14.61;62.92;97590.09;6985330;28;20720;-82
2023/10/25 03:45:26;;;;;;;7.90;7.20;;;;;;;14.64;62.65;97587.66;6986583;28;20198;-82
2023/10/25 03:48:47;;;;;;;6.47;5.87;;;;;;;14.65;62.79;97591.22;6984934;28;20272;-82
2023/10/25 03:52:08;;;;;;;9.20;8.30;;;;;;;14.64;62.53;97586.88;6974192;28;20360;-82
2023/10/25 03:55:31;;;;;;;24.17;15.17;;;;;;;14.48;62.61;97575.09;6973798;28;20239;-81
2023/10/25 03:58:53;;;;;;;18.10;12.47;;;;;;;14.37;62.66;97577.97;6973920;28;20293;-81
2023/10/25 04:02:14;;;;;;;16.67;9.73;;;;;;;14.38;62.90;97577.72;6971990;28;20739;-83
2023/10/25 04:05:40;;;;;;;8.93;7.57;;;;;;;14.24;62.93;97564.84;6966944;28;20316;-81
2023/10/25 04:09:02;;;;;;;8.10;7.30;;;;;;;14.00;62.99;97558.09;6973801;28;20242;-82
2023/10/25 04:12:27;;;;;;;8.13;7.33;;;;;;;14.23;62.64;97566.72;6973614;28;20195;-81
2023/10/25 04:15:56;;;;;;;9.33;7.27;;;;;;;14.13;63.13;97550.38;6973703;28;20747;-81
2023/10/25 04:19:17;;;;;;;7.60;6.80;;;;;;;14.19;62.95;97560.22;6971152;28;20302;-81
2023/10/25 04:22:39;;;;;;;10.03;7.33;;;;;;;14.23;62.98;97563.22;6962688;28;20293;-81
2023/10/25 04:26:04;;;;;;;8.53;7.20;;;;;;;13.92;63.33;97550.44;6961680;28;20296;-80
2023/10/25 04:29:27;;;;;;;8.53;7.50;;;;;;;13.85;63.38;97558.75;6972819;28;20217;-81
2023/10/25 04:32:49;;;;;;;9.30;8.30;;;;;;;13.89;63.75;97573.44;6972385;28;20206;-81
2023/10/25 04:36:10;;;;;;;8.23;7.20;;;;;;;13.39;63.87;97550.41;6973754;28;20263;-81
2023/10/25 04:39:32;;;;;;;7.53;6.20;;;;;;;13.95;62.97;97561.59;6954569;28;20238;-81
2023/10/25 04:42:54;;;;;;;6.83;6.17;;;;;;;13.59;64.54;97554.16;6968491;28;20333;-82
2023/10/25 04:46:17;;;;;;;6.50;5.90;;;;;;;13.84;63.74;97542.75;6972813;28;20222;-82
2023/10/25 04:49:38;;;;;;;8.10;6.27;;;;;;;14.15;63.38;97533.84;6974186;28;20335;-82
2023/10/25 04:53:01;;;;;;;6.00;5.50;;;;;;;14.20;62.46;97520.34;6971460;28;20679;-82
2023/10/25 04:56:23;;;;;;;5.53;5.03;;;;;;;14.16;62.32;97521.94;6972612;28;20233;-82
2023/10/25 04:59:44;;;;;;;5.47;4.90;;;;;;;14.19;62.32;97519.56;6969683;28;20237;-82
2023/10/25 05:03:10;;;;;;;5.33;4.83;;;;;;;14.03;62.14;97497.94;6970636;28;20309;-82
2023/10/25 05:06:33;;;;;;;6.47;5.87;;;;;;;13.44;64.14;97529.63;6974177;28;20279;-82
2023/10/25 05:09:55;;;;;;;6.43;5.83;;;;;;;13.62;63.17;97520.34;6971171;28;20209;-82
2023/10/25 05:13:17;;;;;;;5.87;5.30;;;;;;;13.85;63.05;97506.47;6971293;28;20340;-82
2023/10/25 05:16:39;;;;;;;6.00;5.00;;;;;;;13.95;62.53;97509.28;6969944;28;20380;-82
2023/10/25 05:20:04;;;;;;;6.27;5.43;;;;;;;13.98;62.16;97476.25;6984280;28;20290;-82
2023/10/25 05:23:28;;;;;;;5.43;4.93;;;;;;;14.11;62.09;97498.28;6968261;28;20589;-82
2023/10/25 05:26:50;;;;;;;6.03;5.53;;;;;;;14.13;61.90;97496.16;6971057;28;20731;-81
2023/10/25 05:30:15;;;;;;;5.57;5.00;;;;;;;14.09;62.03;97488.81;6972069;28;20279;-81
2023/10/25 05:33:37;;;;;;;5.50;5.10;;;;;;;13.95;61.60;97449.66;6967901;28;20401;-83
2023/10/25 05:37:00;;;;;;;5.83;5.23;;;;;;;14.15;61.52;97483.16;6966066;28;20222;-82
2023/10/25 05:40:23;;;;;;;6.83;5.70;;;;;;;13.99;61.66;97462.41;6972804;28;20283;-80
2023/10/25 05:43:48;;;;;;;6.10;5.37;;;;;;;14.27;61.00;97477.59;6964860;28;20697;-82
2023/10/25 05:47:10;;;;;;;6.20;5.50;;;;;;;14.12;61.34;97475.56;6968234;28;20241;-82
2023/10/25 05:50:32;;;;;;;6.20;5.53;;;;;;;14.19;61.05;97464.50;6971966;28;20286;-82
2023/10/25 05:53:55;;;;;;;8.90;6.13;;;;;;;13.82;61.34;97463.66;6975908;28;20255;-82
2023/10/25 05:57:17;;;;;;;6.63;6.03;;;;;;;13.66;60.50;97456.44;6977215;28;20291;-82
2023/10/25 06:00:39;;;;;;;8.17;5.60;;;;;;;13.59;60.84;97467.50;6975687;28;20229;-83
2023/10/25 06:04:04;;;;;;;6.17;5.57;;;;;;;13.54;60.36;97459.34;6973320;28;20225;-84
2023/10/25 06:07:27;;;;;;;6.63;5.90;;;;;;;13.23;61.07;97473.59;6974226;28;20317;-82
2023/10/25 06:10:51;;;;;;;6.90;6.20;;;;;;;13.23;61.59;97470.09;6978061;28;20696;-82
2023/10/25 06:14:13;;;;;;;7.07;6.37;;;;;;;13.36;61.53;97467.81;6972022;28;20203;-83
2023/10/25 06:17:35;;;;;;;7.83;7.03;;;;;;;13.47;61.98;97466.84;6980446;28;20371;-83
2023/10/25 06:20:56;;;;;;;6.97;6.37;;;;;;;13.79;61.44;97454.13;6962266;28;20311;-82
2023/10/25 06:24:18;;;;;;;6.20;5.70;;;;;;;13.55;62.94;97460.97;6976928;28;20313;-83
2023/10/25 06:27:41;;;;;;;6.60;5.97;;;;;;;13.46;61.94;97424.56;6973351;28;20276;-84
2023/10/25 06:31:02;;;;;;;6.40;5.80;;;;;;;13.85;62.36;97463.94;6969123;28;20309;-84
2023/10/25 06:34:24;;;;;;;7.83;5.83;;;;;;;13.98;61.85;97465.41;6976878;28;20615;-84
2023/10/25 06:37:46;;;;;;;5.90;5.40;;;;;;;13.99;62.24;97451.59;6968591;28;20315;-84
2023/10/25 06:41:14;;;;;;;5.17;4.67;;;;;;;14.15;61.90;97447.91;6970707;28;20303;-84
2023/10/25 06:44:38;;;;;;;5.40;4.90;;;;;;;14.27;61.88;97447.78;6967496;28;20591;-83
2023/10/25 06:48:00;;;;;;;5.67;5.10;;;;;;;14.21;61.65;97451.53;6970832;28;20233;-85
2023/10/25 06:51:22;;;;;;;6.87;5.93;;;;;;;13.99;62.56;97435.31;6977120;28;20297;-82
2023/10/25 06:54:44;;;;;;;6.30;5.70;;;;;;;14.11;62.60;97432.44;6978101;28;20296;-85
2023/10/25 06:58:06;;;;;;;5.40;4.90;;;;;;;14.50;62.12;97423.78;6960454;28;20768;-83
2023/10/25 07:01:32;;;;;;;4.47;4.10;;;;;;;14.93;61.33;97412.56;6972010;28;20234;-85
2023/10/25 07:05:00;;;;;;;4.07;3.73;;;;;;;15.73;58.23;97420.09;6975914;28;20253;-84
2023/10/25 07:08:22;;;;;;;4.53;3.67;;;;;;;15.73;58.22;97409.22;6968863;28;20708;-84
2023/10/25 07:11:44;;;;;;;3.67;3.33;;;;;;;16.51;56.32;97408.63;6976501;28;20577;-83
2023/10/25 07:15:06;;;;;;;3.20;3.00;;;;;;;17.27;53.62;97393.59;6964152;28;20299;-85
2023/10/25 07:18:29;;;;;;;3.50;3.20;;;;;;;17.35;53.60;97322.97;6962114;28;20323;-84
2023/10/25 07:21:51;;;;;;;3.20;2.97;;;;;;;17.80;51.25;97328.06;6967529;28;20212;-83
2023/10/25 07:25:13;;;;;;;3.10;2.90;;;;;;;18.33;49.79;97348.06;6966119;28;20216;-84
2023/10/25 07:28:34;;;;;;;3.00;2.80;;;;;;;18.26;51.47;97383.00;6975030;28;20680;-83
2023/10/25 07:31:56;;;;;;;3.00;2.70;;;;;;;18.27;50.96;97360.09;6975178;28;20298;-84
2023/10/25 07:35:19;;;;;;;3.00;2.80;;;;;;;17.89;53.21;97356.38;6965147;28;20243;-83
2023/10/25 07:38:40;;;;;;;2.60;2.40;;;;;;;17.70;53.51;97339.06;6972265;28;20252;-83
2023/10/25 07:42:02;;;;;;;3.20;2.90;;;;;;;18.50;52.79;97326.53;6975404;28;20695;-83
2023/10/25 07:45:23;;;;;;;2.30;2.17;;;;;;;19.73;48.77;97284.06;6974857;28;20202;-82
2023/10/25 07:48:45;;;;;;;2.77;2.50;;;;;;;21.16;45.22;97349.16;6974405;28;20301;-82
2023/10/25 07:52:08;;;;;;;2.60;2.40;;;;;;;21.73;43.74;97327.25;6965032;28;20707;-81
2023/10/25 07:55:29;;;;;;;2.30;2.20;;;;;;;22.09;42.79;97343.66;6974064;28;20300;-84
2023/10/25 07:58:51;;;;;;;2.30;2.20;;;;;;;20.61;47.57;97341.25;6975589;28;20227;-81
2023/10/25 08:02:12;;;;;;;2.33;2.13;;;;;;;19.67;48.59;97337.22;6971830;28;20258;-81
2023/10/25 08:05:34;;;;;;;2.10;2.00;;;;;;;20.15;47.99;97335.84;6972603;28;20336;-82
2023/10/25 08:08:57;;;;;;;2.50;2.30;;;;;;;19.48;49.90;97325.50;6965885;28;20434;-81
2023/10/25 08:12:18;;;;;;;2.70;2.50;;;;;;;18.17;53.27;97328.25;6965935;28;20212;-85
2023/10/25 08:15:40;;;;;;;3.90;2.77;;;;;;;16.75;57.81;97330.72;6970730;28;20209;-79
2023/10/25 08:19:01;;;;;;;3.80;3.37;;;;;;;16.50;59.07;97337.06;6965001;28;20228;-83
2023/10/25 08:22:23;;;;;;;5.53;2.80;;;;;;;17.15;58.78;97322.31;6966915;28;20362;-80
2023/10/25 08:25:46;;;;;;;52.57;41.83;;;;;;;17.79;57.00;97318.28;6955386;28;20336;-80
2023/10/25 08:29:08;;;;;;;2.97;2.60;;;;;;;17.34;57.56;97252.44;6966915;28;20322;-83
2023/10/25 08:32:29;;;;;;;3.00;2.80;;;;;;;17.97;57.37;97317.56;6957036;28;20271;-82
2023/10/25 08:36:01;;;;;;;2.67;2.47;;;;;;;17.91;56.70;97318.72;6954479;28;20350;-83
2023/10/25 08:39:22;;;;;;;8.50;2.60;;;;;;;17.82;57.39;97314.97;6952099;28;20734;-83
2023/10/25 08:42:45;;;;;;;2.70;2.20;;;;;;;17.82;57.36;97295.88;6951207;28;20252;-80
2023/10/25 08:46:07;;;;;;;2.77;2.50;;;;;;;17.89;57.36;97303.72;6961833;28;20792;-81
2023/10/25 08:49:29;;;;;;;3.37;2.73;;;;;;;17.86;57.29;97305.13;6959113;28;20227;-82
2023/10/25 08:52:51;;;;;;;2.50;2.40;;;;;;;17.68;57.25;97283.22;6947169;28;20236;-82
2023/10/25 08:56:12;;;;;;;3.53;2.33;;;;;;;17.67;57.56;97296.03;6952793;28;20632;-81
2023/10/25 08:59:43;;;;;;;3.23;2.20;;;;;;;17.48;58.18;97291.56;6941286;28;20370;-81
2023/10/25 09:03:04;;;;;;;4.60;2.57;;;;;;;17.85;57.46;97278.97;6948111;28;20663;-81
2023/10/25 09:06:26;;;;;;;2.10;2.00;;;;;;;17.89;57.49;97279.19;6954405;28;20262;-82
2023/10/25 09:09:48;;;;;;;2.50;2.30;;;;;;;18.32;56.56;97279.00;6965288;28;20211;-80
2023/10/25 09:13:13;;;;;;;2.40;2.30;;;;;;;17.83;56.19;97212.19;6954813;28;20283;-82
2023/10/25 09:16:36;;;;;;;2.67;2.47;;;;;;;18.32;56.36;97278.19;6959511;28;20302;-83
2023/10/25 09:19:57;;;;;;;2.87;2.57;;;;;;;18.44;56.19;97270.41;6971229;28;20266;-83
2023/10/25 09:23:19;;;;;;;3.77;2.13;;;;;;;18.29;56.79;97265.91;6979296;28;20216;-82
2023/10/25 09:26:40;;;;;;;2.80;2.43;;;;;;;18.38;56.46;97264.19;6980690;28;20204;-82
2023/10/25 09:30:12;;;;;;;3.00;2.30;;;;;;;18.14;57.26;97252.47;6983573;28;20212;-83
2023/10/25 09:33:35;;;;;;;2.67;2.20;;;;;;;18.32;56.91;97240.00;6982012;28;20227;-85
2023/10/25 09:36:56;;;;;;;2.07;1.97;;;;;;;18.21;57.11;97238.47;6976557;28;20644;-82
2023/10/25 09:40:18;;;;;;;2.17;2.07;;;;;;;18.21;56.92;97236.56;6974284;28;20314;-81
2023/10/25 09:43:41;;;;;;;2.00;1.90;;;;;;;18.42;56.16;97237.97;6982179;28;20204;-83
2023/10/25 09:47:05;;;;;;;3.90;2.00;;;;;;;18.45;56.32;97242.81;6987649;28;20535;-81
2023/10/25 09:50:34;;;;;;;2.60;2.00;;;;;;;18.32;56.98;97245.44;6984970;28;20208;-82
2023/10/25 09:53:59;;;;;;;2.30;2.20;;;;;;;18.15;57.61;97236.88;6988931;28;20204;-82
2023/10/25 09:57:21;;;;;;;2.43;2.23;;;;;;;17.95;58.31;97237.97;6974299;28;20291;-83
2023/10/25 10:00:43;;;;;;;2.23;2.13;;;;;;;18.24;58.23;97229.69;6974363;28;20753;-81
2023/10/25 10:04:12;;;;;;;2.40;2.20;;;;;;;18.28;57.42;97230.75;6972187;28;20276;-82
2023/10/25 10:07:39;;;;;;;4.93;2.30;;;;;;;18.38;56.44;97234.19;6973525;28;20274;-83
2023/10/25 10:11:05;;;;;;;3.07;2.37;;;;;;;18.58;55.89;97214.00;6976195;28;20302;-84
2023/10/25 10:14:28;;;;;;;2.60;2.40;;;;;;;18.64;56.39;97215.56;6981082;28;20209;-83
2023/10/25 10:17:50;;;;;;;2.40;2.20;;;;;;;18.73;56.62;97189.19;6972219;28;20232;-84
2023/10/25 10:21:13;;;;;;;2.87;2.23;;;;;;;18.73;55.76;97186.47;6963802;28;20310;-84
2023/10/25 10:24:40;;;;;;;3.50;2.80;;;;;;;18.37;56.79;97168.97;6967928;28;20225;-85
2023/10/25 10:28:03;;;;;;;2.67;2.47;;;;;;;18.67;55.56;97176.72;6981005;28;20233;-85
2023/10/25 10:31:25;;;;;;;2.50;2.30;;;;;;;18.70;55.77;97137.94;6986037;28;20204;-85
2023/10/25 10:34:48;;;;;;;2.37;2.13;;;;;;;18.91;54.81;97136.50;6962542;28;20300;-83
2023/10/25 10:38:10;;;;;;;3.40;2.40;;;;;;;18.95;55.15;97113.75;6968415;28;20309;-84
2023/10/25 10:41:33;;;;;;;2.40;2.20;;;;;;;19.29;55.21;97154.47;6974398;28;20249;-85
2023/10/25 10:44:55;;;;;;;2.47;2.27;;;;;;;19.14;55.00;97119.97;6971618;28;20354;-80
2023/10/25 10:48:20;;;;;;;2.83;2.47;;;;;;;19.02;55.12;97116.91;6973395;28;20225;-82
2023/10/25 10:51:42;;;;;;;2.47;2.27;;;;;;;19.32;54.64;97110.13;6965194;28;20212;-83
2023/10/25 10:55:05;;;;;;;1.90;1.73;;;;;;;18.83;54.81;97090.75;6973441;28;20244;-80
2023/10/25 10:58:29;;;;;;;2.40;1.90;;;;;;;19.05;55.25;97090.94;6972857;28;20226;-81
2023/10/25 11:01:51;;;;;;;1.83;1.73;;;;;;;19.05;54.69;97096.38;6968258;28;20237;-85
2023/10/25 11:05:14;;;;;;;1.93;1.83;;;;;;;19.26;54.87;97070.34;6948455;28;20678;-84
2023/10/25 11:08:36;;;;;;;2.37;2.17;;;;;;;19.23;54.36;97068.22;6963170;28;20229;-83
2023/10/25 11:12:05;;;;;;;2.23;1.90;;;;;;;18.90;54.88;97085.72;6968948;28;20340;-83
2023/10/25 11:15:30;;;;;;;1.80;1.70;;;;;;;19.25;53.85;97072.28;6961276;28;20221;-84
2023/10/25 11:18:52;;;;;;;1.70;1.60;;;;;;;19.23;54.05;97049.88;6961182;28;20312;-83
2023/10/25 11:22:14;;;;;;;2.13;1.93;;;;;;;19.50;52.55;97044.44;6971595;28;20234;-83
2023/10/25 11:25:36;;;;;;;2.13;1.73;;;;;;;19.47;52.93;97030.56;6975087;28;20359;-84
2023/10/25 11:28:58;;;;;;;2.23;1.90;;;;;;;19.67;52.60;97030.16;6971781;28;20222;-86
2023/10/25 11:32:20;;;;;;;2.33;1.83;;;;;;;19.68;53.17;97013.44;6965093;28;20205;-85
2023/10/25 11:35:43;;;;;;;2.10;1.90;;;;;;;20.00;52.19;96993.31;6966294;28;20292;-87
2023/10/25 11:39:06;;;;;;;2.03;1.53;;;;;;;20.29;51.73;97004.69;6961334;28;20683;-84
2023/10/25 11:42:29;;;;;;;3.57;1.60;;;;;;;20.65;50.70;96994.47;6961559;28;20654;-85
2023/10/25 11:45:51;;;;;;;2.20;1.57;;;;;;;21.08;49.78;96977.97;6986392;28;20228;-86
2023/10/25 11:49:18;;;;;;;1.87;1.60;;;;;;;21.07;49.27;96926.25;6990864;28;20868;-86
2023/10/25 11:52:40;;;;;;;1.70;1.60;;;;;;;20.50;49.60;96926.41;6985439;28;20205;-86
2023/10/25 11:56:01;;;;;;;1.70;1.60;;;;;;;20.77;50.25;96975.53;6971567;28;20207;-86
2023/10/25 11:59:23;;;;;;;1.90;1.80;;;;;;;20.67;50.60;96953.91;6983720;28;20260;-86
2023/10/25 12:02:44;;;;;;;4.80;3.10;;;;;;;20.83;50.11;96967.69;6985893;28;20648;-86
2023/10/25 12:06:08;;;;;;;1.70;1.57;;;;;;;20.77;50.04;96934.47;6993148;28;20229;-86
2023/10/25 12:09:30;;;;;;;1.90;1.20;;;;;;;21.14;48.87;96957.53;6988744;28;20202;-85
2023/10/25 12:12:51;;;;;;;1.50;1.40;;;;;;;21.10;49.31;96933.03;6978601;28;20198;-86
2023/10/25 12:16:13;;;;;;;1.60;1.27;;;;;;;21.55;48.17;96935.25;6978405;28;20222;-86
2023/10/25 12:19:35;;;;;;;2.37;1.87;;;;;;;21.04;49.01;96915.13;6993054;28;20230;-86
2023/10/25 12:22:58;;;;;;;3.03;1.70;;;;;;;20.86;48.13;96850.41;6986798;28;20582;-86
2023/10/25 12:26:19;;;;;;;1.40;1.30;;;;;;;20.83;47.99;96878.41;6978777;28;20860;-85
2023/10/25 12:29:41;;;;;;;1.50;1.40;;;;;;;20.87;49.42;96904.84;6974288;28;20229;-83
2023/10/25 12:33:02;;;;;;;1.60;1.50;;;;;;;20.71;48.71;96872.72;6976475;28;20270;-81
2023/10/25 12:36:24;;;;;;;1.37;1.27;;;;;;;20.39;49.98;96893.03;6974122;28;20258;-85
2023/10/25 12:39:47;;;;;;;1.20;1.20;;;;;;;20.65;50.29;96898.63;6950950;28;20376;-82
2023/10/25 12:43:08;;;;;;;1.43;1.20;;;;;;;20.97;49.38;96892.81;6965781;28;20197;-83
2023/10/25 12:46:31;;;;;;;1.70;1.40;;;;;;;20.99;48.90;96887.84;6975480;28;20237;-83
2023/10/25 12:49:53;;;;;;;1.50;1.40;;;;;;;21.04;47.87;96874.81;6977083;28;20201;-83
2023/10/25 12:53:14;;;;;;;1.33;1.23;;;;;;;21.36;47.53;96883.44;6967194;28;20206;-83
2023/10/25 12:56:37;;;;;;;1.70;1.20;;;;;;;21.27;47.57;96862.63;6966176;28;20307;-80
2023/10/25 12:59:59;;;;;;;1.10;1.10;;;;;;;21.14;47.51;96878.06;6977029;28;20226;-84
2023/10/25 13:03:20;;;;;;;1.97;1.20;;;;;;;21.29;47.34;96860.34;6966546;28;20281;-83
2023/10/25 13:06:42;;;;;;;1.63;1.20;;;;;;;20.92;48.87;96813.56;6966504;28;20332;-84
2023/10/25 13:10:04;;;;;;;1.37;1.17;;;;;;;21.14;49.36;96860.81;6968214;28;20263;-80
2023/10/25 13:13:27;;;;;;;3.60;1.60;;;;;;;21.05;50.04;96832.56;6966875;28;21661;-81
2023/10/25 13:16:49;;;;;;;1.20;1.20;;;;;;;21.36;49.83;96855.22;6961351;28;20223;-82
2023/10/25 13:20:14;;;;;;;3.60;1.60;;;;;;;21.61;49.65;96851.69;6972144;28;21211;-82
2023/10/25 13:23:36;;;;;;;2.40;1.47;;;;;;;21.76;49.78;96849.28;6961163;28;20670;-81
2023/10/25 13:26:57;;;;;;;2.53;1.37;;;;;;;21.93;48.86;96840.22;6965448;28;20218;-79
2023/10/25 13:30:20;;;;;;;2.53;2.10;;;;;;;22.05;48.32;96841.19;6966175;28;20238;-81
2023/10/25 13:33:42;;;;;;;1.40;1.30;;;;;;;21.75;48.88;96830.41;6966741;28;20293;-81
2023/10/25 13:37:04;;;;;;;1.60;1.50;;;;;;;21.70;49.05;96834.13;6971161;28;20705;-82
2023/10/25 13:40:26;;;;;;;1.30;1.20;;;;;;;21.17;48.63;96755.22;6970529;28;20234;-81
2023/10/25 13:43:48;;;;;;;2.27;1.70;;;;;;;20.89;49.45;96817.72;6961885;28;20207;-80
2023/10/25 13:47:11;;;;;;;2.20;1.93;;;;;;;21.25;49.93;96821.03;6960502;28;20252;-81
2023/10/25 13:50:32;;;;;;;1.03;1.03;;;;;;;21.13;49.00;96832.59;6971339;28;20337;-81
2023/10/25 13:53:54;;;;;;;1.33;1.27;;;;;;;21.13;49.36;96820.84;6965556;28;20211;-81
2023/10/25 13:57:16;;;;;;;2.43;1.70;;;;;;;21.13;48.51;96830.97;6953166;28;20219;-81
2023/10/25 14:00:38;;;;;;;1.80;1.70;;;;;;;20.91;48.58;96814.66;6954663;28;20223;-81
2023/10/25 14:04:01;;;;;;;1.67;1.20;;;;;;;20.46;47.46;96821.41;6963649;28;20286;-82
2023/10/25 14:07:23;;;;;;;1.20;1.10;;;;;;;20.28;47.31;96817.78;6955480;28;20705;-80
2023/10/25 14:10:44;;;;;;;0.90;0.90;;;;;;;20.35;47.05;96820.06;6949699;28;20478;-82
2023/10/25 14:14:06;;;;;;;1.20;1.10;;;;;;;20.39;47.58;96807.38;6952095;28;20635;-82
2023/10/25 14:17:27;;;;;;;1.30;1.00;;;;;;;21.22;45.74;96807.16;6968892;28;20290;-81
2023/10/25 14:20:50;;;;;;;2.37;1.40;;;;;;;21.46;45.41;96792.66;6951760;28;20717;-81
2023/10/25 14:24:12;;;;;;;1.37;1.27;;;;;;;21.38;45.59;96792.66;6954749;28;20731;-83
2023/10/25 14:27:35;;;;;;;3.03;1.50;;;;;;;21.02;45.49;96780.34;6979889;28;20222;-83
2023/10/25 14:30:56;;;;;;;2.70;1.30;;;;;;;20.95;46.21;96799.19;6987093;28;20202;-84
2023/10/25 14:34:18;;;;;;;4.10;1.43;;;;;;;20.36;47.13;96806.09;6985784;28;20214;-83
2023/10/25 14:37:41;;;;;;;0.97;0.97;;;;;;;19.94;48.97;96808.56;6989429;28;20252;-85
2023/10/25 14:41:02;;;;;;;1.40;1.30;;;;;;;20.07;48.92;96792.09;6971638;28;20229;-84
2023/10/25 14:44:24;;;;;;;1.40;1.20;;;;;;;19.76;48.98;96777.53;6982798;28;20213;-84
2023/10/25 14:47:46;;;;;;;2.30;2.10;;;;;;;20.12;48.76;96778.28;6986766;28;20238;-82
2023/10/25 14:51:13;;;;;;;2.27;2.07;;;;;;;19.35;49.24;96694.94;6981515;28;20211;-80
2023/10/25 14:54:36;;;;;;;1.43;1.33;;;;;;;19.32;50.26;96749.41;6971273;28;20711;-83
2023/10/25 14:57:58;;;;;;;2.13;1.87;;;;;;;19.95;49.61;96778.16;6956644;28;20258;-85
2023/10/25 15:01:19;;;;;;;1.97;1.30;;;;;;;19.36;50.86;96729.38;6964432;28;20265;-85
2023/10/25 15:04:41;;;;;;;1.00;1.00;;;;;;;20.16;49.66;96781.97;6974056;28;20230;-83
2023/10/25 15:08:02;;;;;;;1.10;1.10;;;;;;;19.72;49.44;96669.13;6987263;28;20226;-83
2023/10/25 15:11:25;;;;;;;1.43;1.33;;;;;;;20.41;49.80;96758.59;6975659;28;20211;-82
2023/10/25 15:14:47;;;;;;;1.27;1.17;;;;;;;20.16;49.74;96740.94;6958562;28;20209;-82
2023/10/25 15:18:08;;;;;;;1.43;1.33;;;;;;;20.45;49.55;96752.16;6983731;28;20305;-81
2023/10/25 15:21:30;;;;;;;3.17;1.30;;;;;;;20.30;49.80;96721.69;6975729;28;20225;-84
2023/10/25 15:24:52;;;;;;;1.63;1.50;;;;;;;20.51;49.98;96736.41;6978543;28;20285;-84
2023/10/25 15:28:14;;;;;;;1.73;1.60;;;;;;;19.97;50.99;96710.25;6982429;28;20307;-83
2023/10/25 15:31:36;;;;;;;2.23;1.83;;;;;;;19.92;51.38;96726.03;6980001;28;20704;-84
2023/10/25 15:34:58;;;;;;;1.93;1.47;;;;;;;20.13;50.85;96733.38;6981042;28;20223;-84
2023/10/25 15:38:19;;;;;;;1.50;1.40;;;;;;;19.64;52.64;96730.81;6958849;28;20214;-82
2023/10/25 15:41:42;;;;;;;2.87;2.13;;;;;;;19.83;52.87;96744.28;6982849;28;20271;-84
2023/10/25 15:45:10;;;;;;;5.10;1.73;;;;;;;19.51;54.46;96744.59;6985725;28;20205;-83
2023/10/25 15:48:31;;;;;;;4.00;1.70;;;;;;;19.30;54.95;96740.72;6984627;28;20222;-83
2023/10/25 15:51:53;;;;;;;3.00;2.20;;;;;;;19.55;54.85;96734.63;6980372;28;20208;-84